createdAt,value
2019-02-20T00:00:31.033Z,21.00
2019-02-20T00:02:59.280Z,21.00
2019-02-20T00:05:27.582Z,21.00
2019-02-20T00:07:55.826Z,21.00
2019-02-20T00:10:24.133Z,21.00
2019-02-20T00:12:52.377Z,21.00
2019-02-20T00:15:20.693Z,21.00
2019-02-20T00:17:48.925Z,21.00
2019-02-20T00:20:17.221Z,21.00
2019-02-20T00:22:45.529Z,21.00
2019-02-20T00:25:13.785Z,21.00
2019-02-20T00:27:42.155Z,21.00
2019-02-20T00:30:10.793Z,21.00
2019-02-20T00:32:39.037Z,21.00
2019-02-20T00:35:07.266Z,21.00
2019-02-20T00:37:35.498Z,21.00
2019-02-20T00:40:08.572Z,21.00
2019-02-20T00:42:36.801Z,21.00
2019-02-20T00:45:09.684Z,21.00
2019-02-20T00:47:42.486Z,21.00
2019-02-20T00:50:11.771Z,21.00
2019-02-20T00:52:50.837Z,21.00
2019-02-20T00:55:19.079Z,21.00
2019-02-20T00:57:47.378Z,21.00
2019-02-20T01:00:16.469Z,21.00
2019-02-20T01:02:44.706Z,21.00
2019-02-20T01:05:13.015Z,21.00
2019-02-20T01:07:41.317Z,21.00
2019-02-20T01:10:09.557Z,21.00
2019-02-20T01:12:37.869Z,21.00
2019-02-20T01:15:10.748Z,21.00
2019-02-20T01:17:38.978Z,21.00
2019-02-20T01:20:09.522Z,21.00
2019-02-20T01:22:37.784Z,21.00
2019-02-20T01:25:06.453Z,21.00
2019-02-20T01:27:34.776Z,21.00
2019-02-20T01:30:03.867Z,21.00
2019-02-20T01:32:32.222Z,21.00
2019-02-20T01:35:00.537Z,21.00
2019-02-20T01:37:28.770Z,21.00
2019-02-20T01:39:57.189Z,21.00
2019-02-20T01:42:25.418Z,21.00
2019-02-20T01:44:53.740Z,21.00
2019-02-20T01:47:21.971Z,21.00
2019-02-20T01:49:50.214Z,21.00
2019-02-20T01:52:18.450Z,21.00
2019-02-20T01:54:46.685Z,21.00
2019-02-20T01:57:14.985Z,21.00
2019-02-20T01:59:43.310Z,21.00
2019-02-20T02:02:11.540Z,21.00
2019-02-20T02:04:39.838Z,21.00
2019-02-20T02:07:08.085Z,21.00
2019-02-20T02:09:36.324Z,21.00
2019-02-20T02:12:04.647Z,20.90
2019-02-20T02:14:32.945Z,20.90
2019-02-20T02:17:01.198Z,21.00
2019-02-20T02:19:29.438Z,20.90
2019-02-20T02:21:57.681Z,20.90
2019-02-20T02:24:25.914Z,20.90
2019-02-20T02:26:54.230Z,20.90
2019-02-20T02:29:22.463Z,20.90
2019-02-20T02:31:50.775Z,20.90
2019-02-20T02:34:19.036Z,20.90
2019-02-20T02:36:47.265Z,20.90
2019-02-20T02:39:15.535Z,20.90
2019-02-20T02:41:44.867Z,20.90
2019-02-20T02:44:13.345Z,20.90
2019-02-20T02:46:41.769Z,20.90
2019-02-20T02:49:09.998Z,20.90
2019-02-20T02:51:38.243Z,20.90
2019-02-20T02:54:06.553Z,20.90
2019-02-20T02:56:34.793Z,20.90
2019-02-20T02:59:03.095Z,20.90
2019-02-20T03:01:31.353Z,20.90
2019-02-20T03:03:59.619Z,20.90
2019-02-20T03:06:27.926Z,20.90
2019-02-20T03:08:56.248Z,20.90
2019-02-20T03:11:24.473Z,20.90
2019-02-20T03:13:52.787Z,20.90
2019-02-20T03:16:21.026Z,20.90
2019-02-20T03:18:49.338Z,20.90
2019-02-20T03:21:17.578Z,20.90
2019-02-20T03:23:45.882Z,20.90
2019-02-20T03:26:14.127Z,20.90
2019-02-20T03:28:42.529Z,20.90
2019-02-20T03:31:13.697Z,20.90
2019-02-20T03:33:41.928Z,20.90
2019-02-20T03:36:11.262Z,20.90
2019-02-20T03:38:39.494Z,20.80
2019-02-20T03:41:07.906Z,20.80
2019-02-20T03:43:36.139Z,20.80
2019-02-20T03:46:04.537Z,20.90
2019-02-20T03:48:32.791Z,20.90
2019-02-20T03:51:01.029Z,20.80
2019-02-20T03:53:29.284Z,20.80
2019-02-20T03:55:57.522Z,20.90
2019-02-20T03:58:25.762Z,20.80
2019-02-20T04:00:53.999Z,20.80
2019-02-20T04:03:22.245Z,20.80
2019-02-20T04:05:50.478Z,20.80
2019-02-20T04:08:18.738Z,20.90
2019-02-20T04:10:46.974Z,20.80
2019-02-20T04:13:15.247Z,20.80
2019-02-20T04:15:43.532Z,20.80
2019-02-20T04:18:11.847Z,20.80
2019-02-20T04:20:40.146Z,20.80
2019-02-20T04:23:09.057Z,20.80
2019-02-20T04:25:37.289Z,20.80
2019-02-20T04:28:05.529Z,20.80
2019-02-20T04:30:33.764Z,20.80
2019-02-20T04:33:02.009Z,20.80
2019-02-20T04:35:30.252Z,20.80
2019-02-20T04:37:58.501Z,20.80
2019-02-20T04:40:27.042Z,20.80
2019-02-20T04:42:55.282Z,20.80
2019-02-20T04:45:24.381Z,20.80
2019-02-20T04:47:52.640Z,20.80
2019-02-20T04:50:20.931Z,20.80
2019-02-20T04:52:49.342Z,20.80
2019-02-20T04:55:17.573Z,20.80
2019-02-20T04:57:46.677Z,20.80
2019-02-20T05:00:15.056Z,20.80
2019-02-20T05:02:43.355Z,20.80
2019-02-20T05:05:11.591Z,20.80
2019-02-20T05:07:39.837Z,20.80
2019-02-20T05:10:09.919Z,20.80
2019-02-20T05:12:38.160Z,20.80
2019-02-20T05:15:06.570Z,20.80
2019-02-20T05:17:34.817Z,20.80
2019-02-20T05:20:03.220Z,20.80
2019-02-20T05:22:31.463Z,20.80
2019-02-20T05:25:00.768Z,20.80
2019-02-20T05:27:29.019Z,20.80
2019-02-20T05:29:57.251Z,20.80
2019-02-20T05:32:25.486Z,20.80
2019-02-20T05:34:53.730Z,20.80
2019-02-20T05:37:21.979Z,20.80
2019-02-20T05:39:50.230Z,20.80
2019-02-20T05:42:18.473Z,20.80
2019-02-20T05:44:46.714Z,20.80
2019-02-20T05:47:14.956Z,20.80
2019-02-20T05:49:43.460Z,20.80
2019-02-20T05:52:12.371Z,20.80
2019-02-20T05:54:40.614Z,20.80
2019-02-20T05:57:08.842Z,20.80
2019-02-20T05:59:37.170Z,20.80
2019-02-20T06:02:05.398Z,20.80
2019-02-20T06:04:34.624Z,20.80
2019-02-20T06:07:02.983Z,20.80
2019-02-20T06:09:31.225Z,20.80
2019-02-20T06:11:59.460Z,20.80
2019-02-20T06:14:27.709Z,20.80
2019-02-20T06:16:55.941Z,20.80
2019-02-20T06:19:24.506Z,20.70
2019-02-20T06:21:52.982Z,20.80
2019-02-20T06:24:21.236Z,20.70
2019-02-20T06:26:49.465Z,20.70
2019-02-20T06:29:17.713Z,20.70
2019-02-20T06:31:45.954Z,20.70
2019-02-20T06:34:14.218Z,20.80
2019-02-20T06:36:42.456Z,20.70
2019-02-20T06:39:11.266Z,20.70
2019-02-20T06:41:39.724Z,20.70
2019-02-20T06:44:08.092Z,20.70
2019-02-20T06:46:36.325Z,20.70
2019-02-20T06:49:04.569Z,20.70
2019-02-20T06:51:32.965Z,20.70
2019-02-20T06:54:01.215Z,20.70
2019-02-20T06:56:29.451Z,20.70
2019-02-20T06:58:57.693Z,20.70
2019-02-20T07:01:25.932Z,20.70
2019-02-20T07:03:54.857Z,20.70
2019-02-20T07:06:44.645Z,20.70
2019-02-20T07:09:24.969Z,20.70
2019-02-20T07:12:15.781Z,20.70
2019-02-20T07:15:13.201Z,20.70
2019-02-20T07:18:11.861Z,20.70
2019-02-20T07:21:15.305Z,20.70
2019-02-20T07:23:58.585Z,20.60
2019-02-20T07:26:42.013Z,20.60
2019-02-20T07:29:46.869Z,20.60
2019-02-20T07:32:16.933Z,20.60
2019-02-20T07:34:45.259Z,20.60
2019-02-20T07:37:13.481Z,20.60
2019-02-20T07:39:41.789Z,20.60
2019-02-20T07:42:10.022Z,20.60
2019-02-20T07:44:38.509Z,20.70
2019-02-20T07:47:06.818Z,20.70
2019-02-20T07:49:35.049Z,20.70
2019-02-20T07:52:03.333Z,20.70
2019-02-20T07:54:31.542Z,20.70
2019-02-20T07:56:59.786Z,20.70
2019-02-20T07:59:28.041Z,20.70
2019-02-20T08:01:56.299Z,20.70
2019-02-20T08:04:24.525Z,20.70
2019-02-20T08:06:52.772Z,20.70
2019-02-20T08:09:21.862Z,20.70
2019-02-20T08:11:50.109Z,20.70
2019-02-20T08:14:19.017Z,20.70
2019-02-20T08:16:52.256Z,20.70
2019-02-20T08:19:17.214Z,20.80
2019-02-20T08:21:45.470Z,20.70
2019-02-20T08:24:13.702Z,20.80
2019-02-20T08:26:41.949Z,20.70
2019-02-20T08:29:11.810Z,20.80
2019-02-20T08:31:40.053Z,20.80
2019-02-20T08:34:08.356Z,20.80
2019-02-20T08:36:36.858Z,20.80
2019-02-20T08:39:05.434Z,20.80
2019-02-20T08:41:33.673Z,20.80
2019-02-20T08:44:01.910Z,20.80
2019-02-20T08:46:30.168Z,20.80
2019-02-20T08:48:58.410Z,20.80
2019-02-20T08:51:26.658Z,20.80
2019-02-20T08:53:54.889Z,20.80
2019-02-20T08:56:23.167Z,20.80
2019-02-20T08:58:51.393Z,20.80
2019-02-20T09:01:19.706Z,20.80
2019-02-20T09:03:47.937Z,20.90
2019-02-20T09:06:16.174Z,20.90
2019-02-20T09:08:44.421Z,20.90
2019-02-20T09:11:12.657Z,20.90
2019-02-20T09:13:40.897Z,20.80
2019-02-20T09:16:09.462Z,20.90
2019-02-20T09:18:37.701Z,20.90
2019-02-20T09:21:05.930Z,20.90
2019-02-20T09:23:34.180Z,20.90
2019-02-20T09:26:02.413Z,20.90
2019-02-20T09:28:30.658Z,20.90
2019-02-20T09:30:58.888Z,20.90
2019-02-20T09:33:27.133Z,20.90
2019-02-20T09:35:55.366Z,20.80
2019-02-20T09:38:23.614Z,20.90
2019-02-20T09:40:52.851Z,20.90
2019-02-20T09:43:21.154Z,20.80
2019-02-20T09:45:49.385Z,20.90
2019-02-20T09:48:17.636Z,20.80
2019-02-20T09:50:47.774Z,20.80
2019-02-20T09:53:16.069Z,20.80
2019-02-20T09:55:51.106Z,20.80
2019-02-20T09:58:14.257Z,20.80
2019-02-20T10:00:42.502Z,20.80
2019-02-20T10:03:10.743Z,20.80
2019-02-20T10:05:39.662Z,20.80
2019-02-20T10:08:07.898Z,20.80
2019-02-20T10:10:36.149Z,20.80
2019-02-20T10:13:04.380Z,20.80
2019-02-20T10:15:32.622Z,20.80
2019-02-20T10:18:00.857Z,20.80
2019-02-20T10:20:29.103Z,20.80
2019-02-20T10:22:57.346Z,20.80
2019-02-20T10:25:25.590Z,20.80
2019-02-20T10:27:53.825Z,20.80
2019-02-20T10:30:22.158Z,20.80
2019-02-20T10:32:50.402Z,20.80
2019-02-20T10:35:19.213Z,20.80
2019-02-20T10:37:47.448Z,20.80
2019-02-20T10:40:15.689Z,20.80
2019-02-20T10:42:43.922Z,20.90
2019-02-20T10:45:13.144Z,20.80
2019-02-20T10:47:41.429Z,20.80
2019-02-20T10:50:11.892Z,20.90
2019-02-20T10:52:40.257Z,20.90
2019-02-20T10:55:09.330Z,20.80
2019-02-20T10:57:37.566Z,20.80
2019-02-20T11:00:23.380Z,20.90
2019-02-20T11:02:43.522Z,20.90
2019-02-20T11:05:11.767Z,20.80
2019-02-20T11:07:39.993Z,20.80
2019-02-20T11:10:08.614Z,20.80
2019-02-20T11:12:36.847Z,20.80
2019-02-20T11:15:06.240Z,20.80
2019-02-20T11:17:34.468Z,20.80
2019-02-20T11:20:02.778Z,20.80
2019-02-20T11:22:32.106Z,20.80
2019-02-20T11:25:00.538Z,20.80
2019-02-20T11:27:29.149Z,20.80
2019-02-20T11:29:57.393Z,20.80
2019-02-20T11:32:25.630Z,20.80
2019-02-20T11:34:53.857Z,20.80
2019-02-20T11:37:22.102Z,20.80
2019-02-20T11:39:50.333Z,20.80
2019-02-20T11:42:18.582Z,20.80
2019-02-20T11:44:46.878Z,20.80
2019-02-20T11:47:15.123Z,20.80
2019-02-20T11:49:43.363Z,20.80
2019-02-20T11:52:11.606Z,20.80
2019-02-20T11:54:39.841Z,20.80
2019-02-20T11:57:08.081Z,20.80
2019-02-20T11:59:36.314Z,20.80
2019-02-20T12:02:05.228Z,20.80
2019-02-20T12:04:33.461Z,20.80
2019-02-20T12:07:01.721Z,20.80
2019-02-20T12:09:30.621Z,20.80
2019-02-20T12:11:58.867Z,20.80
2019-02-20T12:14:27.100Z,20.80
2019-02-20T12:16:55.346Z,20.80
2019-02-20T12:19:23.699Z,20.80
2019-02-20T12:21:52.773Z,20.80
2019-02-20T12:24:21.009Z,20.80
2019-02-20T12:26:49.258Z,20.90
2019-02-20T12:29:17.488Z,20.90
2019-02-20T12:31:52.329Z,20.90
2019-02-20T12:34:15.691Z,20.90
2019-02-20T12:36:43.941Z,20.90
2019-02-20T12:39:12.845Z,20.90
2019-02-20T12:41:41.089Z,20.90
2019-02-20T12:44:09.330Z,21.00
2019-02-20T12:46:37.856Z,21.00
2019-02-20T12:49:06.097Z,21.00
2019-02-20T12:51:34.338Z,21.00
2019-02-20T12:54:02.570Z,21.00
2019-02-20T12:56:30.822Z,21.00
2019-02-20T12:59:07.444Z,21.00
2019-02-20T13:01:29.721Z,21.00
2019-02-20T13:03:57.957Z,21.00
2019-02-20T13:06:26.269Z,21.00
2019-02-20T13:08:54.513Z,21.00
2019-02-20T13:11:22.750Z,21.10
2019-02-20T13:13:50.987Z,21.10
2019-02-20T13:16:19.218Z,21.10
2019-02-20T13:18:47.460Z,21.10
2019-02-20T13:21:15.695Z,21.10
2019-02-20T13:23:45.471Z,21.10
2019-02-20T13:26:13.830Z,21.10
2019-02-20T13:28:42.074Z,21.10
2019-02-20T13:31:10.319Z,21.10
2019-02-20T13:33:38.569Z,21.10
2019-02-20T13:36:07.469Z,21.10
2019-02-20T13:38:35.714Z,21.20
2019-02-20T13:41:03.950Z,21.20
2019-02-20T13:43:32.761Z,21.20
2019-02-20T13:46:01.003Z,21.20
2019-02-20T13:48:29.253Z,21.20
2019-02-20T13:50:57.485Z,21.20
2019-02-20T13:53:25.736Z,21.20
2019-02-20T13:55:54.043Z,21.20
2019-02-20T13:58:22.285Z,21.20
2019-02-20T14:00:50.529Z,21.30
2019-02-20T14:03:18.771Z,21.30
2019-02-20T14:05:47.006Z,21.30
2019-02-20T14:08:15.249Z,21.30
2019-02-20T14:10:43.649Z,21.30
2019-02-20T14:13:11.908Z,21.20
2019-02-20T14:15:40.784Z,21.20
2019-02-20T14:18:09.026Z,21.30
2019-02-20T14:20:37.269Z,21.30
2019-02-20T14:23:06.761Z,21.30
2019-02-20T14:25:36.405Z,21.30
2019-02-20T14:28:04.848Z,21.30
2019-02-20T14:30:33.741Z,21.30
2019-02-20T14:33:02.462Z,21.30
2019-02-20T14:35:31.270Z,21.30
2019-02-20T14:38:00.195Z,21.30
2019-02-20T14:40:28.429Z,21.30
2019-02-20T14:42:56.689Z,21.30
2019-02-20T14:45:24.926Z,21.30
2019-02-20T14:47:53.157Z,21.30
2019-02-20T14:50:21.693Z,21.30
2019-02-20T14:52:49.938Z,21.40
2019-02-20T14:55:18.849Z,21.30
2019-02-20T14:57:47.288Z,21.30
2019-02-20T15:00:16.254Z,21.40
2019-02-20T15:02:44.485Z,21.40
2019-02-20T15:05:12.727Z,21.40
2019-02-20T15:07:40.961Z,21.40
2019-02-20T15:10:09.749Z,21.40
2019-02-20T15:12:37.975Z,21.30
2019-02-20T15:15:13.907Z,21.40
2019-02-20T15:17:42.140Z,21.40
2019-02-20T15:20:11.222Z,21.40
2019-02-20T15:22:39.571Z,21.40
2019-02-20T15:25:08.955Z,21.40
2019-02-20T15:27:37.554Z,21.40
2019-02-20T15:30:12.402Z,21.40
2019-02-20T15:32:40.865Z,21.40
2019-02-20T15:35:09.549Z,21.40
2019-02-20T15:37:37.783Z,21.40
2019-02-20T15:40:08.269Z,21.40
2019-02-20T15:42:36.553Z,21.30
2019-02-20T15:45:07.366Z,21.30
2019-02-20T15:47:35.602Z,21.30
2019-02-20T15:50:05.989Z,21.30
2019-02-20T15:52:34.500Z,21.40
2019-02-20T15:55:02.813Z,21.40
2019-02-20T15:57:37.776Z,21.30
2019-02-20T16:00:01.021Z,21.40
2019-02-20T16:02:29.922Z,21.30
2019-02-20T16:04:58.165Z,21.30
2019-02-20T16:07:26.650Z,21.30
2019-02-20T16:09:54.893Z,21.30
2019-02-20T16:12:23.122Z,21.40
2019-02-20T16:14:52.577Z,21.30
2019-02-20T16:17:22.176Z,21.30
2019-02-20T16:19:50.499Z,21.30
2019-02-20T16:22:18.730Z,21.30
2019-02-20T16:24:47.445Z,21.30
2019-02-20T16:27:15.677Z,21.30
2019-02-20T16:29:43.922Z,21.30
2019-02-20T16:32:12.154Z,21.30
2019-02-20T16:34:40.394Z,21.30
2019-02-20T16:37:08.632Z,21.30
2019-02-20T16:39:36.954Z,21.30
2019-02-20T16:42:06.229Z,21.30
2019-02-20T16:44:34.473Z,21.30
2019-02-20T16:47:02.705Z,21.30
2019-02-20T16:49:30.942Z,21.30
2019-02-20T16:51:59.185Z,21.30
2019-02-20T16:54:27.418Z,21.30
2019-02-20T16:56:55.665Z,21.20
2019-02-20T16:59:24.282Z,21.30
2019-02-20T17:01:53.187Z,21.30
2019-02-20T17:04:21.427Z,21.30
2019-02-20T17:06:49.677Z,21.20
2019-02-20T17:09:17.984Z,21.20
2019-02-20T17:11:46.222Z,21.20
2019-02-20T17:14:14.461Z,21.20
2019-02-20T17:16:42.974Z,21.20
2019-02-20T17:19:11.877Z,21.20
2019-02-20T17:21:40.121Z,21.20
2019-02-20T17:24:08.362Z,21.20
2019-02-20T17:26:36.605Z,21.20
2019-02-20T17:29:04.838Z,21.20
2019-02-20T17:31:33.086Z,21.20
2019-02-20T17:34:02.005Z,21.20
2019-02-20T17:36:30.245Z,21.20
2019-02-20T17:38:58.477Z,21.20
2019-02-20T17:41:27.490Z,21.20
2019-02-20T17:43:57.762Z,21.20
2019-02-20T17:46:26.004Z,21.20
2019-02-20T17:48:54.714Z,21.20
2019-02-20T17:51:22.957Z,21.20
2019-02-20T17:53:51.194Z,21.20
2019-02-20T17:56:19.445Z,21.20
2019-02-20T17:58:47.670Z,21.20
2019-02-20T18:01:16.593Z,21.20
2019-02-20T18:03:44.835Z,21.20
2019-02-20T18:06:13.073Z,21.20
2019-02-20T18:08:41.312Z,21.20
2019-02-20T18:11:09.560Z,21.20
2019-02-20T18:13:37.808Z,21.20
2019-02-20T18:16:06.057Z,21.20
2019-02-20T18:18:34.357Z,21.20
2019-02-20T18:21:02.935Z,21.20
2019-02-20T18:23:31.174Z,21.20
2019-02-20T18:25:59.401Z,21.20
2019-02-20T18:28:27.646Z,21.20
2019-02-20T18:30:55.891Z,21.20
2019-02-20T18:33:24.129Z,21.20
2019-02-20T18:35:52.353Z,21.20
2019-02-20T18:38:20.617Z,21.20
2019-02-20T18:40:48.915Z,21.20
2019-02-20T18:43:18.793Z,21.20
2019-02-20T18:45:47.993Z,21.20
2019-02-20T18:48:16.810Z,21.20
2019-02-20T18:50:45.046Z,21.20
2019-02-20T18:53:13.290Z,21.20
2019-02-20T18:55:41.532Z,21.10
2019-02-20T18:58:09.783Z,21.10
2019-02-20T19:00:38.080Z,21.10
2019-02-20T19:03:06.334Z,21.10
2019-02-20T19:05:34.585Z,21.10
2019-02-20T19:08:06.077Z,21.20
2019-02-20T19:10:36.972Z,21.10
2019-02-20T19:13:20.677Z,21.10
2019-02-20T19:16:10.063Z,21.10
2019-02-20T19:18:50.385Z,21.20
2019-02-20T19:21:27.460Z,21.10
2019-02-20T19:24:07.697Z,21.10
2019-02-20T19:26:51.326Z,21.10
2019-02-20T19:29:40.907Z,21.10
2019-02-20T19:32:27.222Z,21.10
2019-02-20T19:35:07.278Z,21.10
2019-02-20T19:38:09.385Z,21.10
2019-02-20T19:41:02.834Z,21.10
2019-02-20T19:43:52.092Z,21.10
2019-02-20T19:46:41.051Z,21.00
2019-02-20T19:49:33.646Z,21.10
2019-02-20T19:52:14.492Z,21.10
2019-02-20T19:54:48.589Z,21.00
2019-02-20T19:57:25.783Z,21.00
2019-02-20T20:00:18.597Z,21.00
2019-02-20T20:02:58.796Z,21.00
2019-02-20T20:05:39.373Z,21.10
2019-02-20T20:08:22.679Z,21.00
2019-02-20T20:11:10.560Z,21.00
2019-02-20T20:13:50.837Z,21.00
2019-02-20T20:16:28.612Z,21.00
2019-02-20T20:19:21.641Z,21.00
2019-02-20T20:22:04.570Z,21.00
2019-02-20T20:24:36.154Z,21.00
2019-02-20T20:27:24.320Z,21.00
2019-02-20T20:30:12.699Z,21.00
2019-02-20T20:32:56.293Z,21.00
2019-02-20T20:35:36.690Z,21.00
2019-02-20T20:38:26.117Z,21.00
2019-02-20T20:41:03.178Z,21.00
2019-02-20T20:43:55.645Z,21.00
2019-02-20T20:46:45.326Z,21.00
2019-02-20T20:49:16.834Z,21.00
2019-02-20T20:52:20.603Z,21.00
2019-02-20T20:55:26.897Z,21.00
2019-02-20T20:58:07.295Z,21.00
2019-02-20T21:00:58.315Z,21.00
2019-02-20T21:03:29.141Z,21.00
2019-02-20T21:06:24.841Z,21.00
2019-02-20T21:08:56.573Z,21.00
2019-02-20T21:11:28.084Z,21.00
2019-02-20T21:14:05.551Z,21.00
2019-02-20T21:16:39.854Z,21.00
2019-02-20T21:19:34.323Z,21.10
2019-02-20T21:22:16.141Z,21.10
2019-02-20T21:25:05.454Z,21.00
2019-02-20T21:27:43.163Z,21.00
2019-02-20T21:30:29.414Z,21.00
2019-02-20T21:33:19.111Z,21.00
2019-02-20T21:35:55.889Z,21.00
2019-02-20T21:38:50.366Z,21.00
2019-02-20T21:41:44.549Z,21.00
2019-02-20T21:44:16.043Z,21.00
2019-02-20T21:46:53.023Z,21.00
2019-02-20T21:49:39.605Z,21.00
2019-02-20T21:52:27.707Z,21.00
2019-02-20T21:55:26.580Z,21.00
2019-02-20T21:58:19.174Z,21.00
2019-02-20T22:00:50.685Z,21.00
2019-02-20T22:03:39.962Z,21.00
2019-02-20T22:06:26.118Z,21.00
2019-02-20T22:09:15.761Z,21.00
2019-02-20T22:11:56.273Z,21.00
2019-02-20T22:14:45.969Z,21.00
2019-02-20T22:17:46.590Z,21.00
2019-02-20T22:20:29.401Z,21.00
2019-02-20T22:23:23.818Z,21.00
2019-02-20T22:25:58.262Z,21.00
2019-02-20T22:28:34.530Z,21.00
2019-02-20T22:31:11.585Z,21.00
2019-02-20T22:34:01.249Z,21.00
2019-02-20T22:36:49.457Z,21.00
2019-02-20T22:39:36.081Z,21.00
2019-02-20T22:42:13.537Z,21.00
2019-02-20T22:45:03.090Z,21.00
2019-02-20T22:47:49.646Z,21.00
2019-02-20T22:50:50.197Z,21.00
2019-02-20T22:53:38.267Z,21.00
2019-02-20T22:56:15.454Z,21.00
2019-02-20T22:59:03.693Z,21.00
2019-02-20T23:01:41.078Z,21.00
2019-02-20T23:04:12.682Z,21.00
2019-02-20T23:06:53.219Z,21.00
2019-02-20T23:09:36.499Z,21.00
2019-02-20T23:12:27.474Z,21.00
2019-02-20T23:14:59.378Z,21.00
2019-02-20T23:17:28.283Z,21.00
2019-02-20T23:19:56.790Z,21.00
2019-02-20T23:22:25.029Z,21.00
2019-02-20T23:24:53.265Z,21.00
2019-02-20T23:27:21.505Z,21.00
2019-02-20T23:29:49.741Z,21.00
2019-02-20T23:32:17.990Z,21.00
2019-02-20T23:34:47.004Z,21.00
2019-02-20T23:37:15.317Z,21.00
2019-02-20T23:39:43.550Z,21.00
2019-02-20T23:42:11.802Z,21.00
2019-02-20T23:44:40.029Z,21.00
2019-02-20T23:47:08.275Z,21.10
2019-02-20T23:49:36.510Z,21.10
2019-02-20T23:52:04.742Z,21.10
2019-02-20T23:54:32.994Z,21.10
2019-02-20T23:57:01.800Z,21.00
2019-02-20T23:59:30.209Z,21.10
